Time;durP1;ratioP1;P1;durP2;ratioP2;P2;SDS_P1;SDS_P2;PMS_P1;PMS_P2;Temp;Humidity;BMP_temperature;BMP_pressure;BME280_temperature;BME280_humidity;BME280_pressure;Samples;Min_cycle;Max_cycle;Signal;HPM_P1;HPM_P2
2021/09/01 00:00:56;;;;;;;;;;;13.80;99.90;;;12.60;100.00;96452.06;10402575;28;2032;-81
2021/09/01 00:05:59;;;;;;;;;;;13.80;99.90;;;12.53;100.00;96449.59;10398411;28;2195;-80
2021/09/01 00:11:02;;;;;;;;;;;13.70;99.90;;;12.42;100.00;96454.19;10393499;28;2230;-79
2021/09/01 00:16:26;;;;;;;;;;;13.70;99.90;;;12.29;100.00;96460.13;10401916;28;2158;-79
2021/09/01 00:21:37;;;;;;;;;;;13.60;99.90;;;12.22;100.00;96467.66;10411201;28;2269;-82
2021/09/01 00:26:40;;;;;;;;;;;13.50;99.90;;;12.00;100.00;96465.16;10413618;28;2036;-78
2021/09/01 00:31:43;;;;;;;;;;;13.30;99.90;;;11.90;100.00;96463.28;10390169;28;2177;-78
2021/09/01 00:36:46;;;;;;;;;;;13.20;99.90;;;11.77;100.00;96466.44;10393510;28;2089;-79
2021/09/01 00:41:49;;;;;;;;;;;13.10;99.90;;;11.74;100.00;96471.53;10393138;28;2217;-78
2021/09/01 00:46:52;;;;;;;;;;;13.00;99.90;;;11.57;100.00;96469.03;10387904;28;2046;-78
2021/09/01 00:51:56;;;;;;;;;;;12.90;99.90;;;11.54;100.00;96483.03;10393638;28;2148;-78
2021/09/01 00:56:59;;;;;;;;;;;12.80;99.90;;;11.46;100.00;96480.84;10389698;28;2155;-78
2021/09/01 01:02:02;;;;;;;;;;;12.70;99.90;;;11.28;100.00;96477.50;10413188;28;2107;-76
2021/09/01 01:07:05;;;;;;;;;;;12.70;99.90;;;11.22;100.00;96475.03;10414685;28;3309;-77
2021/09/01 01:12:08;;;;;;;;;;;12.50;99.90;;;11.16;100.00;96478.78;10397587;28;2869;-76
2021/09/01 01:17:31;;;;;;;;;;;12.50;99.90;;;11.18;100.00;96474.75;10401334;28;2081;-80
2021/09/01 01:22:35;;;;;;;;;;;12.50;99.90;;;11.00;100.00;96470.59;10398441;28;2057;-78
2021/09/01 01:27:38;;;;;;;;;;;12.40;99.90;;;10.85;100.00;96481.25;10403443;28;2299;-79
2021/09/01 01:32:41;;;;;;;;;;;12.20;99.90;;;10.83;100.00;96478.03;10402916;28;2051;-79
2021/09/01 01:37:44;;;;;;;;;;;12.10;99.90;;;10.75;100.00;96479.31;10401302;28;2174;-78
2021/09/01 01:42:46;;;;;;;;;;;12.10;99.90;;;10.72;100.00;96471.75;10394977;28;2416;-81
2021/09/01 01:47:49;;;;;;;;;;;12.10;99.90;;;10.63;100.00;96488.63;10398286;28;2049;-78
2021/09/01 01:52:52;;;;;;;;;;;12.00;99.90;;;10.61;100.00;96479.97;10407757;28;2134;-81
2021/09/01 01:57:55;;;;;;;;;;;11.90;99.90;;;10.52;100.00;96479.66;10397889;28;2041;-78
2021/09/01 02:02:58;;;;;;;;;;;11.90;99.90;;;10.45;100.00;96482.53;10407481;28;2092;-76
2021/09/01 02:08:01;;;;;;;;;;;11.80;99.90;;;10.44;100.00;96486.31;10407121;28;2181;-81
2021/09/01 02:13:04;;;;;;;;;;;11.80;99.90;;;10.30;100.00;96474.31;10405932;28;2225;-79
2021/09/01 02:18:07;;;;;;;;;;;11.80;99.90;;;10.28;100.00;96482.66;10412303;28;2219;-79
2021/09/01 02:23:10;;;;;;;;;;;11.70;99.90;;;10.20;100.00;96484.97;10403235;28;2200;-78
2021/09/01 02:28:13;;;;;;;;;;;11.70;99.90;;;10.23;100.00;96495.22;10402840;28;2088;-78
2021/09/01 02:33:16;;;;;;;;;;;11.60;99.90;;;10.23;100.00;96498.72;10396166;28;2117;-77
2021/09/01 02:38:18;;;;;;;;;;;11.60;99.90;;;10.13;100.00;96495.91;10397649;28;2077;-79
2021/09/01 02:43:21;;;;;;;;;;;11.60;99.90;;;10.08;100.00;96487.78;10399631;28;2264;-75
2021/09/01 02:48:24;;;;;;;;;;;11.50;99.90;;;10.08;100.00;96498.53;10395398;28;2183;-79
2021/09/01 02:53:27;;;;;;;;;;;11.50;99.90;;;10.06;100.00;96495.28;10399624;28;2081;-78
2021/09/01 02:58:30;;;;;;;;;;;11.40;99.90;;;10.01;100.00;96489.88;10404427;28;2037;-77
2021/09/01 03:03:33;;;;;;;;;;;11.40;99.90;;;9.92;100.00;96496.72;10396849;28;2301;-79
2021/09/01 03:08:36;;;;;;;;;;;11.30;99.90;;;9.96;100.00;96489.81;10400500;28;2183;-81
2021/09/01 03:13:38;;;;;;;;;;;11.20;99.90;;;9.88;100.00;96483.00;10400693;28;2113;-79
2021/09/01 03:18:41;;;;;;;;;;;11.30;99.90;;;9.86;100.00;96497.72;10398868;28;2101;-78
2021/09/01 03:23:44;;;;;;;;;;;11.20;99.90;;;9.74;100.00;96487.97;10394884;28;2108;-78
2021/09/01 03:28:47;;;;;;;;;;;11.10;99.90;;;9.71;100.00;96493.00;10398280;28;2101;-80
2021/09/01 03:33:50;;;;;;;;;;;11.00;99.90;;;9.72;100.00;96489.25;10397434;28;2140;-79
2021/09/01 03:38:53;;;;;;;;;;;11.00;99.90;;;9.68;100.00;96501.56;10404667;28;2057;-79
2021/09/01 03:43:56;;;;;;;;;;;10.90;99.90;;;9.64;100.00;96506.63;10403846;28;2096;-79
2021/09/01 03:48:58;;;;;;;;;;;10.90;99.90;;;9.65;100.00;96497.50;10405500;28;2711;-79
2021/09/01 03:54:01;;;;;;;;;;;10.90;99.90;;;9.63;100.00;96513.06;10399718;28;2126;-79
2021/09/01 03:59:04;;;;;;;;;;;10.80;99.90;;;9.61;100.00;96514.38;10400772;28;2216;-79
2021/09/01 04:04:07;;;;;;;;;;;10.80;99.90;;;9.57;100.00;96511.34;10406177;28;2045;-79
2021/09/01 04:09:10;;;;;;;;;;;10.70;99.90;;;9.56;100.00;96517.78;10403581;28;2512;-80
2021/09/01 04:14:13;;;;;;;;;;;10.80;99.90;;;9.55;100.00;96523.41;10406685;28;2116;-80
2021/09/01 04:19:16;;;;;;;;;;;10.70;99.90;;;9.48;100.00;96526.28;10410736;28;2552;-78
2021/09/01 04:24:19;;;;;;;;;;;10.70;99.90;;;9.45;100.00;96526.75;10410310;28;2038;-80
2021/09/01 04:29:22;;;;;;;;;;;10.60;99.90;;;9.45;100.00;96526.75;10397604;28;2128;-80
2021/09/01 04:34:25;;;;;;;;;;;10.70;99.90;;;9.50;100.00;96529.53;10393607;28;2144;-80
2021/09/01 04:39:27;;;;;;;;;;;10.50;99.90;;;9.54;100.00;96519.09;10397674;28;2152;-79
2021/09/01 04:44:30;;;;;;;;;;;10.70;99.90;;;9.54;100.00;96509.16;10395212;28;2001;-80
2021/09/01 04:49:33;;;;;;;;;;;10.60;99.90;;;9.63;100.00;96513.06;10401797;28;2175;-80
2021/09/01 04:54:36;;;;;;;;;;;10.70;99.90;;;9.76;100.00;96517.22;10409905;28;2122;-79
2021/09/01 04:59:39;;;;;;;;;;;10.80;99.90;;;10.10;100.00;96520.56;10414766;28;2140;-79
2021/09/01 05:04:42;;;;;;;;;;;10.90;99.90;;;10.36;100.00;96527.06;10405208;28;2111;-79
2021/09/01 05:09:45;;;;;;;;;;;11.20;99.90;;;10.59;100.00;96530.50;10406024;28;2208;-77
2021/09/01 05:14:48;;;;;;;;;;;11.30;99.90;;;10.72;100.00;96536.28;10399164;28;2162;-80
2021/09/01 05:19:51;;;;;;;;;;;11.50;99.90;;;10.87;100.00;96534.78;10407988;28;2110;-80
2021/09/01 05:24:54;;;;;;;;;;;11.70;99.90;;;11.24;100.00;96538.28;10400558;28;2212;-79
2021/09/01 05:29:56;;;;;;;;;;;11.90;99.90;;;11.61;100.00;96534.75;10392208;28;3282;-79
2021/09/01 05:34:59;;;;;;;;;;;12.10;99.90;;;11.98;100.00;96542.78;10405998;28;2392;-79
2021/09/01 05:40:03;;;;;;;;;;;12.50;99.90;;;12.09;100.00;96543.63;10400186;28;2168;-81
2021/09/01 05:45:06;;;;;;;;;;;12.70;99.90;;;12.24;100.00;96549.06;10407995;28;2322;-80
2021/09/01 05:50:09;;;;;;;;;;;12.80;99.90;;;12.53;100.00;96544.00;10408970;28;2104;-81
2021/09/01 05:55:11;;;;;;;;;;;13.00;99.90;;;12.64;100.00;96539.44;10404772;28;2112;-78
2021/09/01 06:00:14;;;;;;;;;;;13.10;99.90;;;12.61;100.00;96542.69;10406076;28;2435;-80
2021/09/01 06:05:18;;;;;;;;;;;13.20;99.90;;;12.75;100.00;96543.78;10403455;28;2145;-80
2021/09/01 06:10:22;;;;;;;;;;;13.30;99.90;;;12.93;100.00;96542.44;10415265;28;2188;-80
2021/09/01 06:15:24;;;;;;;;;;;13.50;99.90;;;13.19;100.00;96541.34;10410452;28;2140;-83
2021/09/01 06:20:28;;;;;;;;;;;13.70;99.90;;;13.39;100.00;96540.53;10431737;28;2109;-80
2021/09/01 06:25:38;;;;;;;;;;;13.90;99.90;;;13.61;100.00;96555.63;10451731;28;2093;-79
2021/09/01 06:30:41;;;;;;;;;;;14.10;99.90;;;13.86;100.00;96550.16;10429824;28;2174;-82
2021/09/01 06:35:43;;;;;;;;;;;14.30;99.90;;;13.88;100.00;96558.00;10410259;28;2083;-80
2021/09/01 06:40:46;;;;;;;;;;;14.50;99.90;;;14.21;100.00;96556.53;10401352;28;2135;-79
2021/09/01 06:45:50;;;;;;;;;;;14.60;99.90;;;14.37;100.00;96555.34;10405197;28;2037;-81
2021/09/01 06:50:53;;;;;;;;;;;14.80;99.90;;;14.58;98.79;96556.91;10407498;28;2076;-81
2021/09/01 06:55:55;;;;;;;;;;;15.00;99.90;;;14.90;96.49;96561.03;10409856;28;2032;-82
2021/09/01 07:00:58;;;;;;;;;;;15.20;99.90;;;14.85;92.79;96561.06;10416732;28;2375;-81
2021/09/01 07:06:02;;;;;;;;;;;15.50;99.90;;;14.85;90.63;96569.19;10412742;28;2216;-80
2021/09/01 07:11:04;;;;;;;;;;;15.50;99.90;;;15.01;88.45;96572.56;10401323;28;2115;-80
2021/09/01 07:16:07;;;;;;;;;;;15.60;99.90;;;15.15;90.44;96570.84;10404884;28;2082;-80
2021/09/01 07:21:12;;;;;;;;;;;15.60;99.90;;;14.87;90.07;96583.22;10408926;28;2195;-81
2021/09/01 07:26:15;;;;;;;;;;;15.60;99.90;;;15.03;88.02;96589.34;10405193;28;1997;-80
2021/09/01 07:31:18;;;;;;;;;;;15.60;99.90;;;15.83;84.90;96586.22;10419196;28;2100;-82
2021/09/01 07:36:22;;;;;;;;;;;16.00;99.90;;;15.24;86.41;96595.41;10420209;28;2080;-80
2021/09/01 07:41:25;;;;;;;;;;;16.20;99.90;;;15.52;82.54;96602.75;10414373;28;2215;-81
2021/09/01 07:46:27;;;;;;;;;;;16.30;99.90;;;15.80;81.63;96601.19;10404609;28;2145;-80
2021/09/01 07:51:30;;;;;;;;;;;16.50;99.90;;;15.52;82.29;96602.75;10403107;28;2085;-81
2021/09/01 07:56:34;;;;;;;;;;;16.40;99.90;;;15.03;83.60;96611.81;10403743;28;2042;-80
2021/09/01 08:01:37;;;;;;;;;;;16.20;99.90;;;15.42;83.03;96619.13;10411743;28;2058;-81
2021/09/01 08:06:40;;;;;;;;;;;16.30;99.90;;;15.75;80.92;96619.41;10415954;28;2092;-80
2021/09/01 08:11:43;;;;;;;;;;;16.50;99.90;;;15.56;79.76;96636.31;10419149;28;1961;-79
2021/09/01 08:16:46;;;;;;;;;;;16.60;99.90;;;15.70;80.14;96631.09;10424325;28;1994;-79
2021/09/01 08:21:49;;;;;;;;;;;16.50;99.90;;;16.04;77.63;96632.94;10430275;28;2002;-82
2021/09/01 08:26:52;;;;;;;;;;;16.60;99.90;;;15.77;78.49;96636.16;10436635;28;2104;-82
2021/09/01 08:31:55;;;;;;;;;;;16.60;99.90;;;16.46;73.04;96632.19;10405766;28;2120;-79
2021/09/01 08:36:59;;;;;;;;;;;17.10;99.90;;;17.47;68.46;96629.16;10407375;28;2151;-80
2021/09/01 08:42:02;;;;;;;;;;;17.60;99.90;;;18.74;65.33;96624.13;10398714;28;2048;-77
2021/09/01 08:47:05;;;;;;;;;;;18.40;99.90;;;19.05;63.27;96624.25;10390716;28;2022;-82
2021/09/01 08:52:08;;;;;;;;;;;19.20;99.90;;;19.17;61.41;96626.44;10399589;28;2235;-78
2021/09/01 08:57:11;;;;;;;;;;;19.50;99.90;;;18.34;61.86;96626.53;10397267;28;2040;-78
2021/09/01 09:02:14;;;;;;;;;;;19.50;99.90;;;18.35;62.40;96635.50;10396183;28;1994;-78
2021/09/01 09:07:17;;;;;;;;;;;19.30;99.90;;;16.95;65.15;96640.00;10421405;28;2125;-80
2021/09/01 09:12:20;;;;;;;;;;;18.60;99.90;;;16.90;64.62;96631.09;10399440;28;2186;-80
2021/09/01 09:17:23;;;;;;;;;;;17.90;99.90;;;17.37;63.46;96619.28;10415109;28;2087;-81
2021/09/01 09:22:26;;;;;;;;;;;17.90;99.90;;;17.59;63.55;96628.69;10416236;28;2140;-78
2021/09/01 09:27:29;;;;;;;;;;;18.00;99.90;;;17.46;60.12;96624.84;10411907;28;2212;-78
2021/09/01 09:32:32;;;;;;;;;;;18.00;99.90;;;17.37;60.99;96618.44;10417482;28;2038;-81
2021/09/01 09:37:35;;;;;;;;;;;18.10;99.90;;;18.33;57.54;96616.75;10407137;28;2062;-81
2021/09/01 09:42:38;;;;;;;;;;;18.40;99.90;;;18.96;53.11;96606.19;10422262;28;2034;-83
2021/09/01 09:47:41;;;;;;;;;;;19.30;99.90;;;19.76;52.48;96608.13;10419701;28;2983;-80
2021/09/01 09:52:44;;;;;;;;;;;20.00;99.90;;;19.47;50.61;96603.13;10423541;28;3369;-81
2021/09/01 09:57:47;;;;;;;;;;;20.20;99.90;;;19.27;51.53;96607.09;10444746;28;2233;-85
2021/09/01 10:02:50;;;;;;;;;;;20.20;99.90;;;17.64;58.67;96624.00;10447585;28;1814;-86
2021/09/01 10:07:53;;;;;;;;;;;19.50;99.90;;;17.31;61.45;96625.09;10444310;28;2140;-84
2021/09/01 10:12:56;;;;;;;;;;;18.50;99.90;;;16.65;62.39;96619.44;10442020;28;1803;-84
2021/09/01 10:17:59;;;;;;;;;;;18.00;99.90;;;17.05;61.89;96621.91;10450025;28;2030;-84
2021/09/01 10:23:02;;;;;;;;;;;17.90;99.90;;;17.65;60.08;96609.28;10444191;28;2381;-79
2021/09/01 10:28:05;;;;;;;;;;;18.20;99.90;;;18.15;55.12;96606.78;10418481;28;1964;-82
2021/09/01 10:33:08;;;;;;;;;;;18.80;99.90;;;18.40;52.02;96597.31;10438135;28;2085;-83
2021/09/01 10:38:11;;;;;;;;;;;19.10;99.90;;;18.60;51.55;96598.78;10444498;28;2092;-83
2021/09/01 10:43:14;;;;;;;;;;;19.40;99.90;;;18.37;50.49;96595.97;10437976;28;2085;-82
2021/09/01 10:48:17;;;;;;;;;;;19.40;99.90;;;17.54;50.69;96597.75;10415863;28;2049;-81
2021/09/01 10:53:21;;;;;;;;;;;18.90;99.90;;;17.76;51.53;96585.47;10408751;28;2232;-82
2021/09/01 10:58:24;;;;;;;;;;;18.70;99.90;;;17.52;52.20;96582.88;10414437;28;2037;-82
2021/09/01 11:03:27;;;;;;;;;;;18.70;99.90;;;17.99;52.09;96583.69;10411066;28;2200;-81
2021/09/01 11:08:30;;;;;;;;;;;18.80;99.90;;;18.27;52.72;96584.50;10399895;28;2135;-78
2021/09/01 11:13:33;;;;;;;;;;;18.90;99.90;;;18.44;49.15;96583.88;10401843;28;2116;-81
2021/09/01 11:18:39;;;;;;;;;;;19.20;99.90;;;18.21;49.59;96591.97;10405124;28;2100;-81
2021/09/01 11:23:42;;;;;;;;;;;19.20;99.90;;;18.61;47.24;96582.16;10407294;28;2363;-80
2021/09/01 11:28:45;;;;;;;;;;;19.40;99.90;;;18.85;48.06;96576.47;10406367;28;2099;-81
2021/09/01 11:33:48;;;;;;;;;;;19.60;99.90;;;19.86;44.46;96574.34;10407428;28;2156;-83
2021/09/01 11:38:51;;;;;;;;;;;20.20;99.90;;;19.61;46.90;96571.16;10417964;28;1933;-79
2021/09/01 11:43:54;;;;;;;;;;;20.40;99.90;;;18.85;46.59;96576.47;10421670;28;2116;-82
2021/09/01 11:48:57;;;;;;;;;;;20.20;99.90;;;18.33;49.28;96586.81;10443836;28;1907;-82
2021/09/01 11:54:00;;;;;;;;;;;19.60;99.90;;;18.19;52.63;96593.34;10400276;28;1914;-81
2021/09/01 11:59:23;;;;;;;;;;;;;;;18.68;51.26;96595.38;10401504;28;1852;-79
2021/09/01 12:04:26;;;;;;;;;;;19.60;99.90;;;18.25;51.45;96601.13;10405622;28;2040;-81
2021/09/01 12:09:49;;;;;;;;;;;19.50;99.90;;;18.35;50.79;96595.47;10429587;28;2120;-83
2021/09/01 12:14:52;;;;;;;;;;;19.30;99.90;;;18.30;50.36;96592.06;10431982;28;2144;-80
2021/09/01 12:19:55;;;;;;;;;;;19.30;99.90;;;19.21;47.30;96589.25;10443210;28;2033;-85
2021/09/01 12:24:58;;;;;;;;;;;19.70;99.90;;;19.17;46.06;96571.94;10455521;28;1878;-85
2021/09/01 12:30:01;;;;;;;;;;;20.10;99.90;;;19.92;46.99;96573.88;10437532;28;2028;-82
2021/09/01 12:35:06;;;;;;;;;;;20.50;99.90;;;20.37;44.25;96573.72;10441370;28;2012;-84
2021/09/01 12:40:09;;;;;;;;;;;20.90;99.90;;;19.65;46.68;96576.75;10440031;28;2078;-86
2021/09/01 12:45:12;;;;;;;;;;;21.00;99.90;;;20.61;45.33;96580.72;10441698;28;1984;-85
2021/09/01 12:50:15;;;;;;;;;;;21.10;99.90;;;19.94;46.83;96562.66;10417467;28;2068;-83
2021/09/01 12:55:18;;;;;;;;;;;21.10;99.90;;;20.49;45.33;96557.56;10451559;28;2032;-84
2021/09/01 13:00:21;;;;;;;;;;;21.00;99.90;;;20.01;46.98;96568.44;10449185;28;1908;-85
2021/09/01 13:05:24;;;;;;;;;;;21.10;99.90;;;19.81;48.10;96561.63;10454017;28;2111;-84
2021/09/01 13:10:28;;;;;;;;;;;21.00;99.90;;;19.70;47.85;96571.19;10436583;28;2113;-84
2021/09/01 13:15:31;;;;;;;;;;;21.00;99.90;;;19.31;48.07;96566.41;10416516;28;2104;-86
2021/09/01 13:20:36;;;;;;;;;;;20.60;99.90;;;19.52;47.90;96563.97;10443216;28;2127;-83
2021/09/01 13:25:39;;;;;;;;;;;20.50;99.90;;;19.62;48.75;96552.84;10425889;28;2079;-82
2021/09/01 13:30:42;;;;;;;;;;;20.60;99.90;;;19.43;47.13;96551.13;10404964;28;2080;-80
2021/09/01 13:35:45;;;;;;;;;;;20.40;99.90;;;19.12;46.97;96551.06;10413868;28;2195;-83
2021/09/01 13:40:48;;;;;;;;;;;20.30;99.90;;;19.13;45.70;96549.13;10421956;28;2062;-81
2021/09/01 13:45:51;;;;;;;;;;;20.20;99.90;;;19.51;44.61;96543.28;10423553;28;2018;-80
2021/09/01 13:50:54;;;;;;;;;;;20.40;99.90;;;19.99;42.79;96537.97;10419278;28;2062;-82
2021/09/01 13:56:01;;;;;;;;;;;20.60;99.90;;;20.47;42.31;96545.34;10414087;28;2060;-82
2021/09/01 14:01:04;;;;;;;;;;;21.00;99.90;;;19.61;48.36;96543.06;10434688;28;2204;-82
2021/09/01 14:06:07;;;;;;;;;;;20.80;99.90;;;19.91;48.57;96523.16;10407588;28;2060;-80
2021/09/01 14:11:10;;;;;;;;;;;20.70;99.90;;;18.88;50.00;96529.53;10397444;28;2065;-82
2021/09/01 14:16:13;;;;;;;;;;;20.40;99.90;;;18.69;50.11;96520.72;10399208;28;2122;-82
2021/09/01 14:21:16;;;;;;;;;;;19.90;99.90;;;19.06;50.00;96524.25;10399870;28;2203;-79
2021/09/01 14:26:20;;;;;;;;;;;19.90;99.90;;;18.96;48.56;96517.13;10418995;28;2098;-82
2021/09/01 14:31:23;;;;;;;;;;;20.00;99.90;;;19.02;48.95;96520.50;10410331;28;2033;-81
2021/09/01 14:36:26;;;;;;;;;;;20.00;99.90;;;19.09;47.51;96505.34;10414753;28;2112;-84
2021/09/01 14:41:31;;;;;;;;;;;20.00;99.90;;;19.36;47.28;96496.22;10404963;28;2066;-83
2021/09/01 14:46:34;;;;;;;;;;;20.20;99.90;;;19.58;48.22;96497.31;10404885;28;2006;-78
2021/09/01 14:51:37;;;;;;;;;;;20.30;99.90;;;18.80;50.47;96505.78;10419543;28;1991;-79
2021/09/01 14:56:40;;;;;;;;;;;20.10;99.90;;;18.70;50.69;96502.47;10410918;28;1868;-79
2021/09/01 15:01:42;;;;;;;;;;;19.90;99.90;;;18.54;50.72;96491.91;10409548;28;1963;-79
2021/09/01 15:06:46;;;;;;;;;;;19.60;99.90;;;18.43;50.27;96492.44;10397887;28;2058;-82
2021/09/01 15:11:49;;;;;;;;;;;19.50;99.90;;;18.68;51.03;96491.91;10403025;28;2081;-81
2021/09/01 15:16:52;;;;;;;;;;;19.50;99.90;;;18.64;49.94;96490.88;10397333;28;2048;-81
2021/09/01 15:21:55;;;;;;;;;;;19.60;99.90;;;18.55;51.07;96481.81;10402532;28;2018;-80
2021/09/01 15:26:57;;;;;;;;;;;19.60;99.90;;;18.67;50.83;96481.31;10406301;28;1817;-80
2021/09/01 15:32:00;;;;;;;;;;;19.70;99.90;;;18.49;50.83;96475.69;10407080;28;1955;-82
2021/09/01 15:37:03;;;;;;;;;;;19.60;99.90;;;18.12;52.25;96471.31;10420505;28;2057;-81
2021/09/01 15:42:06;;;;;;;;;;;19.30;99.90;;;17.94;52.81;96481.25;10416698;28;1834;-80
2021/09/01 15:47:09;;;;;;;;;;;19.10;99.90;;;17.95;52.95;96480.13;10425520;28;2079;-81
2021/09/01 15:52:12;;;;;;;;;;;19.00;99.90;;;17.93;53.27;96462.47;10424275;28;2069;-85
2021/09/01 15:57:15;;;;;;;;;;;19.00;99.90;;;18.06;53.42;96464.38;10397423;28;1825;-81
2021/09/01 16:02:18;;;;;;;;;;;19.00;99.90;;;18.07;53.02;96471.47;10395383;28;2140;-80
2021/09/01 16:07:21;;;;;;;;;;;19.00;99.90;;;17.83;53.40;96480.63;10408893;28;2104;-81
2021/09/01 16:12:26;;;;;;;;;;;19.00;99.90;;;17.83;53.90;96474.38;10419789;28;2021;-85
2021/09/01 16:17:31;;;;;;;;;;;18.90;99.90;;;17.63;54.08;96475.56;10423820;28;2260;-80
2021/09/01 16:22:34;;;;;;;;;;;18.70;99.90;;;17.49;53.26;96485.59;10428697;28;2105;-86
2021/09/01 16:27:37;;;;;;;;;;;18.60;99.90;;;17.41;53.75;96480.88;10416003;28;1979;-86
2021/09/01 16:32:40;;;;;;;;;;;18.40;99.90;;;17.37;53.39;96474.41;10423590;28;2065;-84
2021/09/01 16:37:50;;;;;;;;;;;18.40;99.90;;;17.24;53.51;96484.97;10423673;28;2009;-82
2021/09/01 16:42:54;;;;;;;;;;;18.30;99.90;;;17.16;53.76;96488.34;10444263;28;2100;-80
2021/09/01 16:47:57;;;;;;;;;;;18.20;99.90;;;17.15;55.49;96484.03;10419240;28;2037;-85
2021/09/01 16:53:00;;;;;;;;;;;18.20;99.90;;;17.06;56.32;96483.13;10416314;28;2047;-86
2021/09/01 16:58:03;;;;;;;;;;;18.10;99.90;;;16.93;57.06;96478.44;10445888;28;1752;-87
2021/09/01 17:03:06;;;;;;;;;;;18.00;99.90;;;16.85;56.08;96477.19;10429717;28;1934;-84
2021/09/01 17:08:09;;;;;;;;;;;17.90;99.90;;;16.71;57.27;96481.78;10444907;28;1894;-86
2021/09/01 17:13:13;;;;;;;;;;;17.80;99.90;;;16.63;57.53;96483.22;10434494;28;2010;-84
2021/09/01 17:18:16;;;;;;;;;;;17.70;99.90;;;16.55;57.23;96483.09;10414982;28;2196;-81
2021/09/01 17:23:19;;;;;;;;;;;17.60;99.90;;;16.44;57.16;96488.66;10422959;28;2084;-80
2021/09/01 17:28:22;;;;;;;;;;;17.50;99.90;;;16.41;57.74;96488.41;10428619;28;2010;-80
2021/09/01 17:33:25;;;;;;;;;;;17.40;99.90;;;16.21;58.61;96495.75;10413167;28;2084;-82
2021/09/01 17:38:28;;;;;;;;;;;17.30;99.90;;;16.08;59.33;96501.06;10415782;28;2131;-80
2021/09/01 17:43:31;;;;;;;;;;;17.20;99.90;;;15.83;61.16;96500.28;10406115;28;2116;-84
2021/09/01 17:48:34;;;;;;;;;;;17.10;99.90;;;15.89;60.71;96496.41;10414911;28;2040;-81
2021/09/01 17:53:37;;;;;;;;;;;17.00;99.90;;;15.72;61.55;96498.00;10416493;28;2204;-82
2021/09/01 17:58:40;;;;;;;;;;;16.90;99.90;;;15.48;62.87;96504.19;10412048;28;1994;-81
2021/09/01 18:03:42;;;;;;;;;;;16.70;99.90;;;15.33;63.77;96501.59;10416752;28;2159;-82
2021/09/01 18:08:45;;;;;;;;;;;16.50;99.90;;;15.41;63.88;96509.13;10430810;28;2017;-81
2021/09/01 18:13:48;;;;;;;;;;;16.50;99.90;;;15.19;65.11;96516.91;10416429;28;2017;-80
2021/09/01 18:18:51;;;;;;;;;;;16.30;99.90;;;15.08;66.65;96522.44;10415976;28;2305;-79
2021/09/01 18:23:54;;;;;;;;;;;16.20;99.90;;;14.82;67.94;96529.13;10429728;28;2151;-80
2021/09/01 18:28:57;;;;;;;;;;;16.10;99.90;;;14.83;68.66;96536.19;10441352;28;2146;-81
2021/09/01 18:34:00;;;;;;;;;;;16.00;99.90;;;14.72;69.77;96540.03;10414632;28;1811;-80
2021/09/01 18:39:03;;;;;;;;;;;15.90;99.90;;;14.72;70.08;96535.44;10407206;28;2026;-84
2021/09/01 18:44:06;;;;;;;;;;;15.80;99.90;;;14.52;71.50;96538.28;10423925;28;1951;-84
2021/09/01 18:49:09;;;;;;;;;;;15.70;99.90;;;14.39;72.49;96541.56;10408599;28;1981;-83
2021/09/01 18:54:16;;;;;;;;;;;15.50;99.90;;;14.21;73.75;96543.00;10404828;28;1960;-84
2021/09/01 18:59:19;;;;;;;;;;;15.40;99.90;;;13.89;75.54;96546.09;10403871;28;1997;-84
2021/09/01 19:04:22;;;;;;;;;;;15.20;99.90;;;13.86;76.31;96560.97;10406706;28;1887;-85
2021/09/01 19:09:25;;;;;;;;;;;15.10;99.90;;;13.79;77.25;96560.44;10406688;28;2056;-86
2021/09/01 19:14:28;;;;;;;;;;;15.00;99.90;;;13.57;79.00;96568.88;10406277;28;1857;-82
2021/09/01 19:19:31;;;;;;;;;;;14.80;99.90;;;13.45;79.63;96566.47;10409190;28;1856;-84
2021/09/01 19:24:34;;;;;;;;;;;14.70;99.90;;;13.43;80.25;96571.34;10403793;28;1919;-83
2021/09/01 19:29:37;;;;;;;;;;;14.70;99.90;;;13.47;80.90;96568.88;10399331;28;1957;-83
2021/09/01 19:34:40;;;;;;;;;;;14.60;99.90;;;13.19;83.05;96573.75;10408443;28;2001;-82
2021/09/01 19:39:43;;;;;;;;;;;14.50;99.90;;;13.08;84.41;96584.81;10423412;28;1940;-82
2021/09/01 19:44:46;;;;;;;;;;;14.40;99.90;;;12.91;85.30;96583.16;10408535;28;1878;-83
2021/09/01 19:49:49;;;;;;;;;;;14.30;99.90;;;12.80;87.16;96584.25;10424914;28;2074;-81
2021/09/01 19:54:52;;;;;;;;;;;14.10;99.90;;;12.67;88.32;96579.38;10425060;28;1794;-84
2021/09/01 19:59:57;;;;;;;;;;;14.00;99.90;;;12.59;89.48;96582.56;10403615;28;1820;-85
2021/09/01 20:05:00;;;;;;;;;;;13.90;99.90;;;12.59;90.05;96575.28;10395226;28;1994;-83
2021/09/01 20:10:04;;;;;;;;;;;13.80;99.90;;;12.53;89.90;96580.94;10391951;28;2089;-84
2021/09/01 20:15:07;;;;;;;;;;;13.80;99.90;;;12.65;89.04;96584.22;10402852;28;1908;-83
2021/09/01 20:20:12;;;;;;;;;;;13.70;99.90;;;12.50;89.36;96586.88;10400925;28;1971;-81
2021/09/01 20:25:18;;;;;;;;;;;13.70;99.90;;;12.33;90.51;96581.69;10407291;28;2104;-83
2021/09/01 20:30:26;;;;;;;;;;;13.60;99.90;;;12.30;90.73;96585.75;10408567;28;2116;-83
2021/09/01 20:35:32;;;;;;;;;;;13.60;99.90;;;12.21;90.96;96584.63;10408578;28;1778;-84
2021/09/01 20:40:38;;;;;;;;;;;13.50;99.90;;;12.17;92.49;96584.34;10400111;28;2141;-81
2021/09/01 20:45:41;;;;;;;;;;;13.40;99.90;;;12.15;92.05;96585.66;10405375;28;2105;-81
2021/09/01 20:50:44;;;;;;;;;;;13.40;99.90;;;12.10;92.58;96591.88;10407372;28;2187;-84
2021/09/01 20:55:47;;;;;;;;;;;13.30;99.90;;;12.02;93.16;96596.94;10417484;28;2100;-83
2021/09/01 21:00:50;;;;;;;;;;;13.20;99.90;;;11.99;93.17;96590.19;10402334;28;2013;-85
2021/09/01 21:05:53;;;;;;;;;;;13.20;99.90;;;11.89;93.64;96599.03;10404752;28;2015;-83
2021/09/01 21:10:56;;;;;;;;;;;13.10;99.90;;;11.80;95.36;96581.72;10401217;28;2249;-83
2021/09/01 21:15:59;;;;;;;;;;;13.00;99.90;;;11.74;96.75;96579.25;10401099;28;2160;-81
2021/09/01 21:21:02;;;;;;;;;;;13.00;99.90;;;11.68;96.23;96580.28;10411107;28;2037;-84
2021/09/01 21:26:05;;;;;;;;;;;12.90;99.90;;;11.54;97.90;96585.34;10415380;28;2064;-83
2021/09/01 21:31:08;;;;;;;;;;;12.90;99.90;;;11.44;99.85;96588.75;10433107;28;2436;-84
2021/09/01 21:36:11;;;;;;;;;;;12.70;99.90;;;11.32;100.00;96580.91;10409588;28;2178;-85
2021/09/01 21:41:14;;;;;;;;;;;12.60;99.90;;;11.27;100.00;96590.81;10408328;28;2216;-83
2021/09/01 21:46:17;;;;;;;;;;;12.60;99.90;;;11.18;100.00;96585.06;10415697;28;2099;-84
2021/09/01 21:51:20;;;;;;;;;;;12.50;99.90;;;11.08;100.00;96583.13;10416771;28;2065;-83
2021/09/01 21:56:23;;;;;;;;;;;12.40;99.90;;;11.06;100.00;96587.94;10407418;28;2220;-84
2021/09/01 22:01:26;;;;;;;;;;;12.30;99.90;;;11.03;100.00;96593.84;10414311;28;2125;-82
2021/09/01 22:06:29;;;;;;;;;;;12.30;99.90;;;11.00;100.00;96586.25;10414932;28;2101;-85
2021/09/01 22:11:32;;;;;;;;;;;12.30;99.90;;;10.97;100.00;96586.78;10420415;28;2166;-85
2021/09/01 22:16:35;;;;;;;;;;;12.30;99.90;;;10.94;100.00;96592.69;10449152;28;1851;-84
2021/09/01 22:21:38;;;;;;;;;;;12.20;99.90;;;10.89;100.00;96589.97;10449053;28;1874;-83
2021/09/01 22:26:43;;;;;;;;;;;12.10;99.90;;;10.81;100.00;96593.94;10450141;28;1565;-84
2021/09/01 22:31:46;;;;;;;;;;;12.10;99.90;;;10.75;100.00;96589.56;10439568;28;2265;-83
2021/09/01 22:36:49;;;;;;;;;;;12.00;99.90;;;10.73;100.00;96586.28;10412739;28;2044;-83
2021/09/01 22:41:52;;;;;;;;;;;12.00;99.90;;;10.72;100.00;96590.06;10450632;28;1992;-85
2021/09/01 22:46:55;;;;;;;;;;;12.00;99.90;;;10.66;100.00;96591.06;10416899;28;2134;-84
2021/09/01 22:51:58;;;;;;;;;;;11.90;99.90;;;10.57;100.00;96591.78;10427090;28;2158;-81
2021/09/01 22:57:01;;;;;;;;;;;11.80;99.90;;;10.48;100.00;96589.53;10442327;28;2122;-84
2021/09/01 23:02:04;;;;;;;;;;;11.80;99.90;;;10.43;100.00;96585.97;10412594;28;2093;-84
2021/09/01 23:07:07;;;;;;;;;;;11.70;99.90;;;10.36;100.00;96588.88;10425743;28;2048;-83